Skip Navigation Links Skip Navigation Links

Current Weather

Agadir Al Massira, Morocco

For information only: do not use for flight planning or navigation.
Latest weather
Observation time Monday, March 19, 2018 10:30 AM WET
Local time Monday, March 19, 2018 10:55 AM WET
Flight conditions Visual Meteorological Conditions
Wind direction West-Southwest (240°)
Winds variable from 200° to 290°
Wind speed 6 mph
Visibility 6.2 mi.
Sky condition
Ceiling unlimited
Cloud layer few clouds 2,000 ft.
Cloud layer scattered clouds 2,600 ft.
Temperature 64°F
Dewpoint 54°F
Altimeter 30.09 in.Hg
Derived measurements
Relative humidity 68%
Density altitude 598 ft.
No significant changes expected in the next two hours.
METAR GMAD 191030Z 24005KT 200V290 9999 FEW020 SCT026 18/12 Q1019 NOSIG


Location code

InnerDrive.Weather 4.0.6615.0 Release CLR 4.0.30319.42000
Copyright ©2018 Inner Drive Technology. All rights reserved. Portions Copyright ©1986-2018 David Braverman.

Find weather

Site navigation

Skip Navigation Links

Place info

Page info

PayPal - The safer, easier way to pay online!

Return home.

Copyright ©2018 Inner Drive Technology. Purveyors of fine, hand-crafted computer software. Page printed 2018-03-19T10:55:19 UTC.